createdAt,value
2022-08-09T00:00:01.028Z,87.82
2022-08-09T00:02:34.063Z,87.68
2022-08-09T00:06:15.395Z,87.65
2022-08-09T00:07:48.950Z,87.74
2022-08-09T00:10:17.934Z,87.71
2022-08-09T00:12:51.540Z,87.52
2022-08-09T00:15:19.949Z,87.61
2022-08-09T00:18:07.570Z,87.58
2022-08-09T00:20:42.381Z,87.37
2022-08-09T00:23:54.841Z,87.04
2022-08-09T00:26:11.136Z,86.84
2022-08-09T00:28:39.665Z,86.65
2022-08-09T00:31:56.811Z,87.12
2022-08-09T00:33:55.366Z,86.39
2022-08-09T00:36:29.581Z,86.58
2022-08-09T00:38:58.453Z,86.96
2022-08-09T00:44:13.223Z,86.90
2022-08-09T00:44:25.434Z,86.60
2022-08-09T00:47:05.404Z,86.54
2022-08-09T00:49:38.948Z,86.71
2022-08-09T00:52:17.245Z,87.51
2022-08-09T00:54:45.610Z,87.02
2022-08-09T00:57:12.799Z,87.34
2022-08-09T00:59:46.460Z,87.10
2022-08-09T01:02:27.723Z,87.11
2022-08-09T01:05:03.567Z,87.46
2022-08-09T01:08:00.321Z,87.63
2022-08-09T01:10:35.895Z,87.96
2022-08-09T01:13:09.263Z,88.07
2022-08-09T01:15:52.158Z,88.39
2022-08-09T01:18:31.457Z,88.16
2022-08-09T01:21:17.066Z,88.25
2022-08-09T01:24:11.119Z,88.54
2022-08-09T01:27:09.653Z,88.49
2022-08-09T01:29:55.712Z,88.26
2022-08-09T01:32:34.055Z,88.37
2022-08-09T01:35:29.124Z,88.29
2022-08-09T01:38:09.305Z,88.64
2022-08-09T01:40:41.466Z,88.14
2022-08-09T01:43:10.070Z,88.34
2022-08-09T01:45:46.283Z,88.44
2022-08-09T01:48:29.487Z,88.45
2022-08-09T01:50:58.680Z,88.45
2022-08-09T01:53:29.291Z,88.80
2022-08-09T01:56:11.234Z,88.71
2022-08-09T01:58:40.286Z,88.77
2022-08-09T02:01:09.153Z,88.56
2022-08-09T02:03:37.229Z,88.71
2022-08-09T02:06:07.379Z,88.62
2022-08-09T02:08:57.916Z,88.52
2022-08-09T02:11:42.638Z,87.74
2022-08-09T02:14:11.023Z,87.84
2022-08-09T02:16:53.243Z,87.40
2022-08-09T02:19:38.538Z,87.16
2022-08-09T02:22:16.879Z,86.79
2022-08-09T02:24:52.009Z,86.42
2022-08-09T02:27:43.127Z,86.13
2022-08-09T02:30:12.693Z,85.77
2022-08-09T02:32:46.195Z,85.44
2022-08-09T02:36:02.491Z,85.11
2022-08-09T02:38:27.948Z,84.73
2022-08-09T02:41:01.104Z,85.32
2022-08-09T02:43:54.235Z,84.76
2022-08-09T02:46:18.930Z,85.20
2022-08-09T02:48:46.978Z,84.64
2022-08-09T02:51:20.451Z,83.92
2022-08-09T02:54:00.533Z,82.81
2022-08-09T02:56:30.576Z,82.11
2022-08-09T02:58:59.728Z,82.23
2022-08-09T03:01:29.638Z,80.87
2022-08-09T03:04:19.165Z,80.93
2022-08-09T03:06:49.011Z,80.57
2022-08-09T03:09:18.204Z,79.11
2022-08-09T03:12:06.210Z,77.40
2022-08-09T03:14:37.474Z,76.57
2022-08-09T03:17:05.523Z,73.85
2022-08-09T03:19:59.311Z,72.61
2022-08-09T03:22:25.467Z,73.76
2022-08-09T03:25:05.665Z,73.43
2022-08-09T03:27:49.995Z,72.51
2022-08-09T03:30:28.107Z,73.15
2022-08-09T03:33:01.980Z,74.01
2022-08-09T03:36:11.602Z,74.15
2022-08-09T03:38:28.781Z,76.04
2022-08-09T03:40:56.304Z,78.85
2022-08-09T03:43:22.979Z,80.25
2022-08-09T03:46:04.228Z,81.65
2022-08-09T03:48:37.517Z,82.84
2022-08-09T03:51:55.696Z,83.22
2022-08-09T03:54:06.309Z,83.70
2022-08-09T03:56:41.328Z,84.16
2022-08-09T03:59:20.961Z,84.93
2022-08-09T04:15:00.276Z,100.00
2022-08-09T04:17:29.506Z,100.00
2022-08-09T04:19:56.543Z,100.00
2022-08-09T04:22:23.779Z,100.00
2022-08-09T04:24:50.841Z,100.00
2022-08-09T04:27:22.022Z,100.00
2022-08-09T04:29:49.539Z,100.00
2022-08-09T04:32:31.335Z,100.00
2022-08-09T04:35:02.625Z,100.00
2022-08-09T04:37:45.306Z,100.00
2022-08-09T04:40:19.010Z,100.00
2022-08-09T04:42:48.581Z,100.00
2022-08-09T04:45:20.557Z,100.00
2022-08-09T04:48:00.923Z,100.00
2022-08-09T04:50:33.709Z,100.00
2022-08-09T04:53:02.199Z,100.00
2022-08-09T04:55:37.855Z,100.00
2022-08-09T04:58:10.694Z,100.00
2022-08-09T05:00:40.615Z,100.00
2022-08-09T05:03:30.653Z,100.00
2022-08-09T05:06:06.680Z,100.00
2022-08-09T05:08:34.969Z,100.00
2022-08-09T05:11:03.370Z,100.00
2022-08-09T05:13:38.823Z,100.00
2022-08-09T05:16:10.145Z,100.00
2022-08-09T05:18:50.461Z,100.00
2022-08-09T05:21:29.690Z,100.00
2022-08-09T05:24:01.243Z,100.00
2022-08-09T05:26:36.392Z,100.00
2022-08-09T05:29:17.499Z,100.00
2022-08-09T05:31:46.655Z,100.00
2022-08-09T05:34:17.695Z,100.00
2022-08-09T05:36:47.046Z,100.00
2022-08-09T05:39:29.561Z,100.00
2022-08-09T05:42:04.416Z,100.00
2022-08-09T05:44:34.980Z,100.00
2022-08-09T05:47:04.960Z,100.00
2022-08-09T05:50:23.132Z,100.00
2022-08-09T05:52:19.597Z,100.00
2022-08-09T05:54:46.395Z,100.00
2022-08-09T05:57:17.615Z,100.00
2022-08-09T05:59:46.461Z,100.00
2022-08-09T06:02:16.967Z,100.00
2022-08-09T06:04:46.080Z,100.00
2022-08-09T06:07:21.409Z,100.00
2022-08-09T06:09:54.344Z,100.00
2022-08-09T06:12:29.919Z,100.00
2022-08-09T06:15:01.124Z,100.00
2022-08-09T06:17:40.519Z,100.00
2022-08-09T06:20:09.327Z,100.00
2022-08-09T06:22:36.858Z,100.00
2022-08-09T06:25:04.252Z,100.00
2022-08-09T06:27:42.913Z,100.00
2022-08-09T06:30:16.079Z,100.00
2022-08-09T06:32:59.712Z,100.00
2022-08-09T06:35:55.702Z,100.00
2022-08-09T06:38:19.217Z,100.00
2022-08-09T06:40:46.170Z,100.00
2022-08-09T06:43:14.187Z,100.00
2022-08-09T06:46:05.305Z,100.00
2022-08-09T06:48:30.985Z,100.00
2022-08-09T06:50:59.919Z,100.00
2022-08-09T06:53:27.252Z,100.00
2022-08-09T06:56:00.550Z,100.00
2022-08-09T07:00:46.830Z,100.00
2022-08-09T07:01:13.973Z,100.00
2022-08-09T07:03:53.245Z,100.00
2022-08-09T07:06:25.580Z,100.00
2022-08-09T07:08:56.340Z,100.00
2022-08-09T07:11:25.392Z,100.00
2022-08-09T07:14:05.048Z,100.00
2022-08-09T07:16:41.232Z,100.00
2022-08-09T07:19:15.523Z,100.00
2022-08-09T07:21:55.428Z,100.00
2022-08-09T07:24:32.318Z,100.00
2022-08-09T07:27:10.862Z,100.00
2022-08-09T07:29:57.074Z,100.00
2022-08-09T07:32:32.246Z,100.00
2022-08-09T07:35:11.315Z,100.00
2022-08-09T07:37:45.688Z,100.00
2022-08-09T07:40:20.686Z,100.00
2022-08-09T07:42:56.417Z,100.00
2022-08-09T07:45:39.605Z,100.00
2022-08-09T07:48:22.557Z,100.00
2022-08-09T07:51:09.560Z,100.00
2022-08-09T07:54:07.219Z,100.00
2022-08-09T07:56:50.031Z,100.00
2022-08-09T07:59:25.570Z,100.00
2022-08-09T08:02:02.618Z,100.00
2022-08-09T08:04:31.856Z,100.00
2022-08-09T08:07:00.429Z,100.00
2022-08-09T08:09:42.938Z,100.00
2022-08-09T08:12:27.705Z,100.00
2022-08-09T08:14:57.051Z,100.00
2022-08-09T08:17:35.244Z,100.00
2022-08-09T08:20:13.071Z,100.00
2022-08-09T08:22:40.412Z,100.00
2022-08-09T08:25:09.499Z,100.00
2022-08-09T08:27:43.397Z,100.00
2022-08-09T08:30:11.656Z,100.00
2022-08-09T08:32:52.868Z,100.00
2022-08-09T08:35:22.877Z,100.00
2022-08-09T08:38:01.871Z,100.00
2022-08-09T08:40:33.666Z,100.00
2022-08-09T08:43:03.245Z,100.00
2022-08-09T08:45:53.285Z,100.00
2022-08-09T08:48:22.596Z,100.00
2022-08-09T08:50:57.701Z,100.00
2022-08-09T08:53:32.086Z,100.00
2022-08-09T08:56:04.709Z,100.00
2022-08-09T08:58:33.161Z,100.00
2022-08-09T09:01:08.985Z,100.00
2022-08-09T09:03:51.728Z,100.00
2022-08-09T09:06:23.070Z,100.00
2022-08-09T09:08:52.444Z,100.00
2022-08-09T09:11:21.382Z,100.00
2022-08-09T09:13:56.440Z,100.00
2022-08-09T09:16:33.662Z,100.00
2022-08-09T09:19:39.356Z,100.00
2022-08-09T09:22:11.865Z,100.00
2022-08-09T09:24:46.016Z,100.00
2022-08-09T09:28:04.525Z,100.00
2022-08-09T09:30:26.180Z,100.00
2022-08-09T09:33:16.194Z,100.00
2022-08-09T09:36:02.356Z,100.00
2022-08-09T09:38:39.770Z,100.00
2022-08-09T09:41:10.678Z,100.00
2022-08-09T09:43:41.384Z,100.00
2022-08-09T09:46:45.731Z,100.00
2022-08-09T09:49:31.663Z,100.00
2022-08-09T09:52:16.334Z,100.00
2022-08-09T09:55:27.592Z,100.00
2022-08-09T09:58:15.729Z,100.00
2022-08-09T10:00:53.966Z,100.00
2022-08-09T10:03:58.084Z,100.00
2022-08-09T10:06:51.941Z,100.00
2022-08-09T10:09:24.009Z,100.00
2022-08-09T10:12:12.563Z,100.00
2022-08-09T10:14:51.328Z,100.00
2022-08-09T10:17:50.400Z,100.00
2022-08-09T10:20:27.330Z,100.00
2022-08-09T10:23:14.172Z,100.00
2022-08-09T10:26:06.375Z,100.00
2022-08-09T10:28:34.522Z,100.00
2022-08-09T10:34:10.409Z,100.00
2022-08-09T10:36:38.789Z,100.00
2022-08-09T10:39:15.378Z,100.00
2022-08-09T10:41:43.983Z,100.00
2022-08-09T10:44:10.772Z,100.00
2022-08-09T10:47:20.323Z,100.00
2022-08-09T10:50:21.041Z,100.00
2022-08-09T10:53:10.670Z,100.00
2022-08-09T10:55:58.285Z,100.00
2022-08-09T10:58:37.088Z,100.00
2022-08-09T11:03:02.787Z,100.00
2022-08-09T11:04:20.037Z,100.00
2022-08-09T11:07:00.727Z,100.00
2022-08-09T11:09:47.742Z,100.00
2022-08-09T11:12:30.097Z,100.00
2022-08-09T11:15:19.223Z,97.03
2022-08-09T11:17:53.143Z,93.67
2022-08-09T11:20:39.707Z,94.21
2022-08-09T11:23:10.069Z,99.27
2022-08-09T11:25:46.124Z,96.22
2022-08-09T11:28:38.917Z,95.00
2022-08-09T11:31:43.290Z,93.66
2022-08-09T11:34:29.656Z,79.71
2022-08-09T11:36:59.187Z,77.06
2022-08-09T11:39:25.951Z,78.59
2022-08-09T11:42:09.517Z,83.15
2022-08-09T11:44:45.881Z,76.66
2022-08-09T11:47:15.668Z,75.90
2022-08-09T11:50:56.849Z,75.38
2022-08-09T11:53:44.086Z,77.00
2022-08-09T11:56:02.058Z,73.40
2022-08-09T11:58:33.215Z,77.03
2022-08-09T12:01:08.255Z,78.25
2022-08-09T12:03:55.679Z,80.00
2022-08-09T12:06:24.742Z,77.78
2022-08-09T12:08:55.980Z,76.42
2022-08-09T12:11:26.364Z,80.03
2022-08-09T12:14:10.195Z,81.37
2022-08-09T12:16:47.077Z,80.84
2022-08-09T12:19:13.963Z,81.71
2022-08-09T12:21:48.447Z,82.76
2022-08-09T12:24:24.959Z,84.12
2022-08-09T12:29:10.730Z,85.67
2022-08-09T12:30:01.441Z,83.60
2022-08-09T12:32:44.308Z,86.19
2022-08-09T12:35:13.154Z,82.53
2022-08-09T12:37:50.233Z,83.71
2022-08-09T12:40:20.569Z,83.32
2022-08-09T12:42:50.499Z,84.58
2022-08-09T12:45:34.759Z,83.61
2022-08-09T12:48:07.815Z,78.76
2022-08-09T12:50:38.518Z,78.70
2022-08-09T12:53:18.381Z,81.30
2022-08-09T12:56:11.639Z,82.19
2022-08-09T12:58:34.400Z,80.23
2022-08-09T13:01:22.091Z,79.98
2022-08-09T13:04:36.442Z,80.10
2022-08-09T13:07:13.779Z,82.28
2022-08-09T13:09:52.850Z,83.65
2022-08-09T13:12:23.189Z,84.53
2022-08-09T13:14:54.180Z,85.88
2022-08-09T13:18:03.365Z,87.24
2022-08-09T13:20:18.710Z,86.86
2022-08-09T13:23:05.564Z,86.53
2022-08-09T13:25:42.761Z,87.39
2022-08-09T13:28:24.620Z,87.52
2022-08-09T13:32:20.074Z,88.21
2022-08-09T13:33:59.706Z,88.54
2022-08-09T13:36:42.551Z,88.48
2022-08-09T13:39:30.974Z,88.54
2022-08-09T13:42:05.371Z,87.23
2022-08-09T13:44:37.970Z,87.78
2022-08-09T13:47:33.070Z,88.75
2022-08-09T13:50:04.258Z,89.07
2022-08-09T13:52:40.128Z,87.95
2022-08-09T13:55:13.558Z,87.46
2022-08-09T13:57:56.345Z,87.29
2022-08-09T14:00:28.615Z,84.68
2022-08-09T14:03:04.330Z,83.84
2022-08-09T14:05:58.862Z,84.28
2022-08-09T14:08:30.200Z,84.98
2022-08-09T14:11:00.327Z,84.72
2022-08-09T14:14:22.878Z,86.02
2022-08-09T14:16:20.059Z,86.66
2022-08-09T14:18:55.913Z,86.68
2022-08-09T14:21:26.542Z,86.81
